Time;durP1;ratioP1;P1;durP2;ratioP2;P2;SDS_P1;SDS_P2;PMS_P1;PMS_P2;Temp;Humidity;BMP_temperature;BMP_pressure;BME280_temperature;BME280_humidity;BME280_pressure;Samples;Min_cycle;Max_cycle;Signal;HPM_P1;HPM_P2
2021/06/09 00:00:22;;;;;;;13.07;9.70;;;15.50;92.70;;;;;;5091959;27;20029;-62
2021/06/09 00:02:48;;;;;;;11.20;9.20;;;15.40;93.30;;;;;;5092114;27;20051;-63
2021/06/09 00:05:14;;;;;;;11.17;9.30;;;15.40;93.50;;;;;;5091551;27;20044;-61
2021/06/09 00:07:40;;;;;;;12.33;9.10;;;15.40;93.60;;;;;;5091788;27;20028;-62
2021/06/09 00:10:06;;;;;;;10.20;9.10;;;15.30;93.80;;;;;;5091804;27;20057;-62
2021/06/09 00:12:33;;;;;;;12.13;9.40;;;15.30;94.20;;;;;;5091821;27;20063;-62
2021/06/09 00:15:00;;;;;;;13.63;10.13;;;15.40;94.10;;;;;;5091303;27;20160;-62
2021/06/09 00:17:27;;;;;;;10.23;8.87;;;15.30;94.40;;;;;;5091631;27;20028;-62
2021/06/09 00:19:52;;;;;;;12.77;9.90;;;15.30;94.40;;;;;;5091485;27;20028;-62
2021/06/09 00:22:21;;;;;;;13.27;10.77;;;15.40;94.50;;;;;;5091268;27;20104;-63
2021/06/09 00:24:47;;;;;;;11.77;9.93;;;15.30;94.80;;;;;;5161428;27;20320;-62
2021/06/09 00:27:13;;;;;;;12.50;9.87;;;15.30;95.00;;;;;;5091442;27;20033;-62
2021/06/09 00:29:40;;;;;;;12.17;9.77;;;15.30;94.90;;;;;;5092277;27;20053;-62
2021/06/09 00:32:06;;;;;;;14.57;10.30;;;15.20;95.30;;;;;;5094801;28;20025;-63
2021/06/09 00:34:33;;;;;;;13.70;10.07;;;15.20;95.60;;;;;;5095050;27;20040;-63
2021/06/09 00:36:58;;;;;;;12.93;10.67;;;15.20;95.60;;;;;;5095054;27;20045;-62
2021/06/09 00:39:24;;;;;;;13.77;10.33;;;15.20;95.50;;;;;;5165468;27;20301;-62
2021/06/09 00:41:55;;;;;;;14.40;10.00;;;15.10;95.90;;;;;;5165015;27;20043;-61
2021/06/09 00:44:21;;;;;;;14.33;10.97;;;15.20;96.10;;;;;;5094824;27;20307;-62
2021/06/09 00:46:47;;;;;;;12.97;10.63;;;15.20;96.10;;;;;;5095046;27;20025;-62
2021/06/09 00:49:13;;;;;;;14.27;10.33;;;15.10;96.80;;;;;;5094598;27;20291;-63
2021/06/09 00:51:40;;;;;;;15.27;10.30;;;15.10;96.70;;;;;;5094906;27;20091;-62
2021/06/09 00:54:06;;;;;;;12.17;10.50;;;15.10;96.70;;;;;;5165394;27;20287;-62
2021/06/09 00:56:35;;;;;;;13.03;10.60;;;15.00;97.30;;;;;;5094685;27;20047;-61
2021/06/09 00:59:02;;;;;;;14.73;11.57;;;15.00;97.60;;;;;;5094521;27;20437;-62
2021/06/09 01:01:29;;;;;;;14.37;12.83;;;14.90;98.40;;;;;;5094950;27;20307;-62
2021/06/09 01:03:56;;;;;;;14.13;11.03;;;14.90;99.90;;;;;;5164979;27;20298;-61
2021/06/09 01:06:22;;;;;;;16.80;10.27;;;14.80;99.60;;;;;;5094830;27;20349;-61
2021/06/09 01:09:07;;;;;;;13.83;11.20;;;14.80;99.30;;;;;;5153385;27;20373;-61
2021/06/09 01:11:33;;;;;;;13.93;11.37;;;14.80;99.40;;;;;;5094905;27;20282;-63
2021/06/09 01:14:19;;;;;;;13.97;11.37;;;14.80;99.50;;;;;;5153361;27;20032;-62
2021/06/09 01:16:46;;;;;;;15.83;12.23;;;14.70;99.50;;;;;;5094813;27;20032;-61
2021/06/09 01:19:12;;;;;;;18.20;13.00;;;14.70;99.90;;;;;;5094665;28;20327;-62
2021/06/09 01:21:38;;;;;;;15.43;12.63;;;14.60;99.90;;;;;;5094414;27;20350;-61
2021/06/09 01:24:04;;;;;;;16.43;13.47;;;14.70;99.90;;;;;;5094256;28;20055;-62
2021/06/09 01:26:31;;;;;;;18.97;13.10;;;14.60;99.90;;;;;;5094593;27;20295;-62
2021/06/09 01:28:59;;;;;;;14.33;12.23;;;14.60;99.90;;;;;;5094292;27;20346;-62
2021/06/09 01:31:28;;;;;;;15.00;13.03;;;14.60;99.90;;;;;;5094271;27;20287;-63
2021/06/09 01:34:08;;;;;;;15.60;12.83;;;14.70;99.90;;;;;;5093982;27;20374;-62
2021/06/09 01:36:36;;;;;;;17.00;13.10;;;14.60;99.90;;;;;;5093812;27;20279;-61
2021/06/09 01:39:08;;;;;;;18.80;14.53;;;14.60;99.90;;;;;;5094248;28;20366;-62
2021/06/09 01:41:34;;;;;;;16.77;13.30;;;14.60;99.90;;;;;;5092938;27;20379;-61
2021/06/09 01:44:20;;;;;;;17.63;15.03;;;14.60;99.90;;;;;;5152859;27;20306;-61
2021/06/09 01:46:45;;;;;;;16.30;13.37;;;14.50;99.90;;;;;;5093905;27;20338;-62
2021/06/09 01:49:13;;;;;;;17.43;14.17;;;14.50;99.90;;;;;;5094008;27;20036;-61
2021/06/09 01:51:39;;;;;;;17.83;14.37;;;14.60;99.90;;;;;;5093714;27;20029;-62
2021/06/09 01:54:07;;;;;;;15.80;12.70;;;14.50;99.90;;;;;;5093774;27;20306;-62
2021/06/09 01:56:34;;;;;;;20.63;15.97;;;14.50;99.90;;;;;;5093984;27;20287;-62
2021/06/09 01:59:10;;;;;;;15.63;13.70;;;14.40;99.90;;;;;;5093587;27;20307;-61
2021/06/09 02:01:37;;;;;;;18.20;14.83;;;14.50;99.90;;;;;;5093771;27;20307;-62
2021/06/09 02:04:09;;;;;;;19.90;14.47;;;14.40;99.90;;;;;;5093483;28;20307;-62
2021/06/09 02:06:51;;;;;;;16.65;13.95;;;14.40;99.90;;;;;;5093634;28;20283;-62
2021/06/09 02:09:35;;;;;;;16.88;13.00;;;14.40;99.90;;;;;;5093725;27;20040;-62
2021/06/09 02:12:02;;;;;;;16.80;13.53;;;14.30;99.90;;;;;;5093363;27;20044;-63
2021/06/09 02:14:28;;;;;;;20.20;14.90;;;14.30;99.90;;;;;;5093551;27;20377;-62
2021/06/09 02:16:53;;;;;;;16.90;14.00;;;14.30;99.90;;;;;;5093674;27;20286;-62
2021/06/09 02:19:23;;;;;;;17.53;15.00;;;14.30;99.90;;;;;;5093203;27;20290;-62
2021/06/09 02:21:49;;;;;;;20.37;15.40;;;14.30;99.90;;;;;;5093054;27;20161;-62
2021/06/09 02:24:16;;;;;;;20.47;15.80;;;14.30;99.90;;;;;;5093497;27;20595;-61
2021/06/09 02:26:42;;;;;;;19.77;15.53;;;14.20;99.90;;;;;;5093303;27;21331;-61
2021/06/09 02:29:10;;;;;;;17.67;14.57;;;14.20;99.90;;;;;;5092941;27;20321;-62
2021/06/09 02:31:38;;;;;;;18.87;15.30;;;14.20;99.90;;;;;;5093444;27;20317;-62
2021/06/09 02:34:13;;;;;;;19.47;15.53;;;14.20;99.90;;;;;;5093049;28;20302;-62
2021/06/09 02:36:41;;;;;;;16.35;14.25;;;14.10;99.90;;;;;;5093049;27;20294;-62
2021/06/09 02:39:06;;;;;;;20.23;16.63;;;14.10;99.90;;;;;;5093176;27;20046;-62
2021/06/09 02:41:32;;;;;;;22.63;17.13;;;14.10;99.90;;;;;;5093031;28;20306;-61
2021/06/09 02:44:00;;;;;;;17.40;14.63;;;14.00;99.90;;;;;;5092968;27;20089;-62
2021/06/09 02:46:34;;;;;;;19.90;15.90;;;14.00;99.90;;;;;;5092622;27;20248;-61
2021/06/09 02:49:23;;;;;;;17.55;15.10;;;13.90;99.90;;;;;;5151652;27;20287;-62
2021/06/09 02:52:11;;;;;;;22.17;16.30;;;13.90;99.90;;;;;;5092581;27;20032;-62
2021/06/09 02:54:43;;;;;;;21.67;15.50;;;13.90;99.90;;;;;;5093154;27;20307;-61
2021/06/09 02:57:18;;;;;;;17.70;13.97;;;13.80;99.90;;;;;;5092248;27;20321;-62
2021/06/09 02:59:58;;;;;;;16.33;13.17;;;13.80;99.90;;;;;;5092619;28;20328;-62
2021/06/09 03:02:26;;;;;;;15.37;12.77;;;13.80;99.90;;;;;;5092318;27;20290;-62
2021/06/09 03:04:56;;;;;;;14.57;13.00;;;13.70;99.90;;;;;;5092344;27;20302;-62
2021/06/09 03:07:37;;;;;;;17.23;14.03;;;13.70;99.90;;;;;;5092553;27;20362;-62
2021/06/09 03:10:23;;;;;;;16.93;13.87;;;13.80;99.90;;;;;;5092451;27;20299;-61
2021/06/09 03:13:07;;;;;;;14.93;12.17;;;13.70;99.90;;;;;;5092426;27;20291;-61
2021/06/09 03:15:40;;;;;;;16.92;13.40;;;13.80;99.90;;;;;;5145139;27;20286;-62
2021/06/09 03:18:28;;;;;;;16.03;13.30;;;13.80;99.90;;;;;;5092349;27;20041;-62
2021/06/09 03:21:05;;;;;;;17.20;13.90;;;13.80;99.90;;;;;;5092321;27;20377;-62
2021/06/09 03:23:50;;;;;;;19.07;14.77;;;13.80;99.90;;;;;;5092339;27;20286;-61
2021/06/09 03:26:36;;;;;;;21.35;16.70;;;13.80;99.90;;;;;;5150954;27;20271;-63
2021/06/09 03:29:07;;;;;;;21.67;16.97;;;13.80;99.90;;;;;;5092429;27;20062;-62
2021/06/09 03:31:42;;;;;;;19.70;16.13;;;13.80;99.90;;;;;;5092246;27;20041;-61
2021/06/09 03:34:19;;;;;;;22.03;17.17;;;13.80;99.90;;;;;;5092012;27;20298;-62
2021/06/09 03:36:48;;;;;;;27.77;18.80;;;13.80;99.90;;;;;;5092409;27;20304;-63
2021/06/09 03:39:18;;;;;;;21.97;16.77;;;13.70;99.90;;;;;;5092402;27;20279;-62
2021/06/09 03:41:49;;;;;;;19.33;15.53;;;13.70;99.90;;;;;;5092314;27;20278;-61
2021/06/09 03:44:20;;;;;;;19.20;15.27;;;13.80;99.90;;;;;;5092371;28;20403;-62
2021/06/09 03:46:46;;;;;;;19.83;15.17;;;13.90;99.90;;;;;;5092317;27;20297;-62
2021/06/09 03:49:15;;;;;;;19.53;15.10;;;13.90;99.90;;;;;;5092186;27;20287;-62
2021/06/09 03:51:57;;;;;;;18.13;14.37;;;13.90;99.90;;;;;;5091999;27;20311;-63
2021/06/09 03:54:42;;;;;;;19.85;13.90;;;14.00;99.90;;;;;;5092435;27;20346;-62
2021/06/09 03:57:32;;;;;;;16.73;12.73;;;14.00;99.90;;;;;;5150574;27;20033;-61
2021/06/09 04:00:00;;;;;;;16.03;13.60;;;14.00;99.90;;;;;;5092157;27;20279;-62
2021/06/09 04:02:27;;;;;;;15.87;13.33;;;14.10;99.90;;;;;;5092138;27;20377;-62
2021/06/09 04:04:57;;;;;;;13.90;12.37;;;14.10;99.90;;;;;;5093128;27;20290;-62
2021/06/09 04:07:24;;;;;;;14.10;12.60;;;14.10;99.90;;;;;;5095740;27;20278;-61
2021/06/09 04:09:51;;;;;;;16.77;13.37;;;14.10;99.90;;;;;;5095837;27;20570;-61
2021/06/09 04:12:19;;;;;;;15.93;13.40;;;14.20;99.90;;;;;;5095338;27;20286;-62
2021/06/09 04:14:47;;;;;;;18.80;13.17;;;14.30;99.90;;;;;;5095738;27;20304;-61
2021/06/09 04:17:19;;;;;;;17.53;14.10;;;14.30;99.90;;;;;;5095693;27;20281;-62
2021/06/09 04:19:48;;;;;;;20.20;15.10;;;14.40;99.90;;;;;;5164345;27;20275;-63
2021/06/09 04:22:14;;;;;;;17.33;14.27;;;14.60;99.90;;;;;;5091204;27;20340;-62
2021/06/09 04:24:40;;;;;;;17.20;14.40;;;14.80;99.90;;;;;;5075537;27;20311;-63
2021/06/09 04:27:14;;;;;;;21.93;14.60;;;15.00;99.90;;;;;;5145650;27;20053;-62
2021/06/09 04:29:42;;;;;;;21.35;15.70;;;15.20;99.90;;;;;;5075603;28;20293;-62
2021/06/09 04:32:08;;;;;;;17.43;13.80;;;15.30;99.90;;;;;;5075437;28;20029;-63
2021/06/09 04:34:43;;;;;;;18.90;14.33;;;15.50;99.90;;;;;;5075231;28;20112;-62
2021/06/09 04:37:10;;;;;;;14.33;12.27;;;15.70;99.90;;;;;;5075888;28;20053;-64
2021/06/09 04:39:37;;;;;;;13.87;12.37;;;15.90;99.90;;;;;;5095473;27;20024;-62
2021/06/09 04:42:04;;;;;;;15.50;12.37;;;16.10;99.90;;;;;;5095843;27;20043;-63
2021/06/09 04:44:30;;;;;;;14.50;11.87;;;16.30;99.20;;;;;;5095503;27;20097;-63
2021/06/09 04:46:56;;;;;;;13.90;11.60;;;16.60;97.70;;;;;;5095497;27;20102;-63
2021/06/09 04:49:33;;;;;;;12.53;11.33;;;16.60;96.00;;;;;;5095463;27;20029;-63
2021/06/09 04:52:02;;;;;;;12.47;11.17;;;16.80;93.60;;;;;;5095537;27;20033;-62
2021/06/09 04:54:28;;;;;;;14.13;11.40;;;16.80;94.10;;;;;;5095300;27;20042;-62
2021/06/09 04:56:54;;;;;;;12.57;11.30;;;17.00;92.40;;;;;;5095254;27;20025;-62
2021/06/09 04:59:20;;;;;;;11.20;10.07;;;17.20;91.40;;;;;;5095197;27;20055;-62
2021/06/09 05:01:46;;;;;;;12.37;11.07;;;17.30;90.90;;;;;;5074963;27;20103;-65
2021/06/09 05:04:12;;;;;;;13.00;10.43;;;17.50;89.60;;;;;;5083442;27;20096;-64
2021/06/09 05:06:38;;;;;;;11.57;10.37;;;17.80;88.30;;;;;;5094578;27;20031;-63
2021/06/09 05:09:05;;;;;;;15.90;10.70;;;17.90;87.40;;;;;;5094727;27;20044;-62
2021/06/09 05:11:43;;;;;;;11.30;10.10;;;17.90;86.60;;;;;;5085539;27;20037;-62
2021/06/09 05:14:36;;;;;;;11.97;10.27;;;18.10;80.40;;;;;;5127782;27;20047;-61
2021/06/09 05:17:04;;;;;;;11.82;10.63;;;18.40;80.30;;;;;;5076804;27;20085;-63
2021/06/09 05:19:33;;;;;;;11.37;10.23;;;18.40;82.30;;;;;;5084424;27;20025;-63
2021/06/09 05:22:06;;;;;;;14.83;10.20;;;18.60;81.00;;;;;;5076525;27;20135;-63
2021/06/09 05:24:35;;;;;;;12.57;10.50;;;18.70;79.20;;;;;;5070381;28;20076;-65
2021/06/09 05:27:02;;;;;;;13.60;10.90;;;18.90;79.20;;;;;;5144467;27;20078;-66
2021/06/09 05:29:31;;;;;;;11.83;10.63;;;19.10;78.40;;;;;;5155313;27;20047;-65
2021/06/09 05:31:59;;;;;;;10.87;9.77;;;19.10;77.90;;;;;;5155327;27;20056;-64
2021/06/09 05:34:25;;;;;;;10.43;9.23;;;19.10;76.80;;;;;;5155140;27;20043;-64
2021/06/09 05:36:53;;;;;;;11.83;10.07;;;19.10;75.40;;;;;;5136362;27;20490;-63
2021/06/09 05:39:19;;;;;;;11.03;9.80;;;19.40;75.20;;;;;;5155137;27;20122;-64
2021/06/09 05:41:48;;;;;;;12.30;9.83;;;19.50;75.50;;;;;;5136480;27;20047;-64
2021/06/09 05:44:15;;;;;;;13.90;10.00;;;19.60;74.70;;;;;;5154712;27;20690;-63
2021/06/09 05:46:43;;;;;;;13.17;10.17;;;19.70;74.40;;;;;;5153841;27;20043;-65
2021/06/09 05:49:21;;;;;;;11.80;8.93;;;19.90;74.30;;;;;;5154129;27;20035;-64
2021/06/09 05:51:49;;;;;;;10.23;9.23;;;20.00;72.10;;;;;;5136070;27;20071;-63
2021/06/09 05:54:16;;;;;;;10.13;8.93;;;20.20;73.30;;;;;;5149460;27;20391;-65
2021/06/09 05:56:42;;;;;;;12.30;8.43;;;20.20;71.10;;;;;;5049464;27;20366;-64
2021/06/09 05:59:11;;;;;;;10.07;8.50;;;20.30;70.60;;;;;;5118677;27;20057;-67
2021/06/09 06:01:38;;;;;;;10.43;8.87;;;20.20;69.10;;;;;;5049148;27;20068;-64
2021/06/09 06:04:06;;;;;;;9.90;8.93;;;20.20;69.90;;;;;;5048833;27;20053;-66
2021/06/09 06:06:32;;;;;;;13.27;9.00;;;20.40;70.40;;;;;;5125975;27;20033;-63
2021/06/09 06:08:58;;;;;;;10.93;8.97;;;20.40;69.30;;;;;;5073070;27;20029;-62
2021/06/09 06:11:26;;;;;;;10.20;9.10;;;20.60;69.40;;;;;;5073265;27;20032;-62
2021/06/09 06:13:52;;;;;;;10.10;9.10;;;20.70;69.50;;;;;;5073086;27;20029;-61
2021/06/09 06:16:22;;;;;;;9.83;8.93;;;20.60;67.70;;;;;;5072926;27;20033;-62
2021/06/09 06:18:59;;;;;;;10.47;8.83;;;20.70;68.40;;;;;;5072378;27;20035;-62
2021/06/09 06:21:25;;;;;;;11.03;8.87;;;20.70;68.60;;;;;;5072855;27;20048;-63
2021/06/09 06:23:52;;;;;;;10.40;9.03;;;20.90;68.70;;;;;;5072733;27;20037;-63
2021/06/09 06:26:20;;;;;;;11.23;8.10;;;21.10;68.70;;;;;;5072951;27;20048;-63
2021/06/09 06:28:50;;;;;;;9.90;7.50;;;21.30;68.30;;;;;;5071962;27;20097;-62
2021/06/09 06:31:22;;;;;;;8.47;7.57;;;21.40;66.80;;;;;;5072802;27;20132;-62
2021/06/09 06:33:48;;;;;;;8.20;7.40;;;21.50;66.10;;;;;;5072435;27;20100;-63
2021/06/09 06:36:17;;;;;;;9.30;7.63;;;21.60;66.30;;;;;;5072206;27;20097;-62
2021/06/09 06:38:44;;;;;;;7.90;7.10;;;21.90;65.20;;;;;;5071022;27;20059;-60
2021/06/09 06:41:10;;;;;;;8.50;7.40;;;22.00;65.30;;;;;;5063164;27;20033;-60
2021/06/09 06:43:38;;;;;;;7.67;6.53;;;21.80;63.20;;;;;;5067559;27;20073;-60
2021/06/09 06:46:05;;;;;;;7.53;6.33;;;21.90;63.40;;;;;;5066696;27;20037;-61
2021/06/09 06:48:33;;;;;;;9.43;6.50;;;22.20;63.30;;;;;;5072385;27;20100;-63
2021/06/09 06:51:00;;;;;;;8.27;7.13;;;22.10;63.30;;;;;;5071501;27;20045;-62
2021/06/09 06:53:27;;;;;;;7.97;7.17;;;22.10;63.40;;;;;;5072651;27;20033;-62
2021/06/09 06:55:59;;;;;;;9.30;7.40;;;21.90;63.30;;;;;;5072438;27;20075;-61
2021/06/09 06:58:29;;;;;;;11.70;7.07;;;22.20;63.60;;;;;;5072777;27;20033;-61
2021/06/09 07:00:56;;;;;;;8.60;7.57;;;22.10;63.70;;;;;;5072374;27;20033;-62
2021/06/09 07:03:23;;;;;;;8.07;7.27;;;22.20;63.20;;;;;;5072258;27;20021;-62
2021/06/09 07:05:51;;;;;;;9.47;7.47;;;22.30;63.00;;;;;;5072226;27;20037;-60
2021/06/09 07:08:17;;;;;;;10.03;7.57;;;22.10;62.20;;;;;;5071805;27;20115;-60
2021/06/09 07:10:43;;;;;;;11.77;7.30;;;21.80;62.80;;;;;;5072288;27;20053;-61
2021/06/09 07:13:09;;;;;;;8.83;7.93;;;21.90;63.10;;;;;;5072096;27;20070;-63
2021/06/09 07:15:39;;;;;;;11.33;8.33;;;22.00;63.20;;;;;;5072202;27;20037;-62
2021/06/09 07:18:06;;;;;;;8.80;7.97;;;22.00;63.70;;;;;;5072147;27;20068;-60
2021/06/09 07:20:32;;;;;;;9.47;8.43;;;21.90;63.80;;;;;;5071969;27;20039;-60
2021/06/09 07:22:58;;;;;;;12.57;8.57;;;22.00;64.30;;;;;;5140938;27;20029;-60
2021/06/09 07:25:26;;;;;;;9.57;8.60;;;22.20;64.70;;;;;;5071437;27;20049;-62
2021/06/09 07:27:54;;;;;;;10.40;8.47;;;22.10;63.80;;;;;;5071606;27;20025;-62
2021/06/09 07:30:24;;;;;;;10.47;9.37;;;22.00;63.30;;;;;;5072026;27;20033;-59
2021/06/09 07:32:50;;;;;;;10.00;8.53;;;22.20;63.20;;;;;;5071507;27;20029;-61
2021/06/09 07:35:16;;;;;;;9.73;8.73;;;22.20;63.70;;;;;;5071904;27;20033;-60
2021/06/09 07:37:49;;;;;;;11.47;9.63;;;22.40;63.10;;;;;;5071810;27;20058;-61
2021/06/09 07:40:28;;;;;;;10.17;9.07;;;22.40;62.60;;;;;;5071540;27;20037;-59
2021/06/09 07:42:59;;;;;;;11.70;9.50;;;22.60;62.00;;;;;;5072063;27;20154;-61
2021/06/09 07:45:26;;;;;;;13.67;9.90;;;22.60;62.90;;;;;;5071760;27;20033;-61
2021/06/09 07:47:56;;;;;;;12.03;9.37;;;22.60;62.70;;;;;;5071343;27;20048;-61
2021/06/09 07:50:28;;;;;;;16.23;10.23;;;22.80;63.70;;;;;;5140112;27;20092;-60
2021/06/09 07:52:56;;;;;;;12.40;10.30;;;22.80;62.40;;;;;;5071527;27;20029;-59
2021/06/09 07:55:23;;;;;;;13.10;10.53;;;22.90;63.10;;;;;;5070946;27;20029;-61
2021/06/09 07:57:52;;;;;;;13.80;11.20;;;22.90;62.00;;;;;;5071138;27;20029;-62
2021/06/09 08:00:18;;;;;;;14.90;11.43;;;22.80;60.80;;;;;;5071293;27;20041;-59
2021/06/09 08:02:55;;;;;;;15.23;12.77;;;22.90;61.10;;;;;;5070796;27;20094;-61
2021/06/09 08:05:22;;;;;;;15.30;12.57;;;23.00;62.00;;;;;;5071152;27;20096;-61
2021/06/09 08:07:48;;;;;;;16.87;12.93;;;23.10;62.50;;;;;;5071124;27;20041;-59
2021/06/09 08:10:15;;;;;;;17.73;12.83;;;23.10;61.00;;;;;;5070803;27;20151;-61
2021/06/09 08:12:41;;;;;;;15.37;13.77;;;23.20;60.90;;;;;;5071064;27;20033;-59
2021/06/09 08:15:11;;;;;;;16.43;14.70;;;23.30;61.10;;;;;;5071146;27;20060;-59
2021/06/09 08:17:40;;;;;;;16.03;14.30;;;23.20;61.60;;;;;;5070841;27;20077;-61
2021/06/09 08:20:10;;;;;;;15.53;13.87;;;23.20;60.40;;;;;;5070546;27;20048;-59
2021/06/09 08:22:38;;;;;;;17.30;12.90;;;23.20;60.70;;;;;;5140238;28;20029;-60
2021/06/09 08:25:06;;;;;;;16.77;13.30;;;23.30;61.10;;;;;;5070717;27;20049;-62
2021/06/09 08:27:31;;;;;;;15.33;13.27;;;23.30;61.30;;;;;;5070676;27;20041;-61
2021/06/09 08:29:58;;;;;;;16.63;13.43;;;23.50;61.50;;;;;;5070803;27;20033;-61
2021/06/09 08:32:26;;;;;;;18.30;13.90;;;23.50;61.30;;;;;;5069581;27;20120;-61
2021/06/09 08:34:58;;;;;;;15.17;13.03;;;23.60;60.20;;;;;;5069846;27;20033;-60
2021/06/09 08:37:33;;;;;;;17.13;13.50;;;23.50;60.00;;;;;;5070823;27;20029;-61
2021/06/09 08:39:59;;;;;;;14.93;13.33;;;23.60;60.20;;;;;;5070328;27;20108;-62
2021/06/09 08:42:33;;;;;;;15.90;12.30;;;23.70;59.60;;;;;;5070680;27;20029;-62
2021/06/09 08:45:00;;;;;;;15.80;13.90;;;23.80;59.70;;;;;;5062404;27;20082;-62
2021/06/09 08:47:26;;;;;;;16.07;13.73;;;23.60;59.40;;;;;;5045671;27;20063;-62
2021/06/09 08:49:53;;;;;;;17.93;14.43;;;23.50;58.70;;;;;;5046174;27;20041;-62
2021/06/09 08:52:22;;;;;;;15.33;13.73;;;23.60;59.40;;;;;;5049592;28;20049;-62
2021/06/09 08:54:49;;;;;;;15.40;13.80;;;23.70;60.50;;;;;;5049924;27;20041;-62
2021/06/09 08:57:16;;;;;;;14.33;12.80;;;23.80;60.00;;;;;;5049985;27;20184;-62
2021/06/09 08:59:44;;;;;;;15.30;13.20;;;23.90;59.40;;;;;;5049182;27;20069;-62
2021/06/09 09:02:14;;;;;;;17.23;12.67;;;24.10;59.30;;;;;;5049815;27;20045;-62
2021/06/09 09:04:41;;;;;;;17.10;13.53;;;24.30;58.60;;;;;;5049559;27;20094;-62
2021/06/09 09:07:08;;;;;;;17.77;12.93;;;24.20;57.90;;;;;;5049587;27;20056;-62
2021/06/09 09:09:36;;;;;;;13.07;11.50;;;24.40;58.10;;;;;;5049684;27;20049;-62
2021/06/09 09:12:02;;;;;;;11.77;10.03;;;24.50;55.80;;;;;;5049727;28;20041;-62
2021/06/09 09:14:28;;;;;;;12.63;10.57;;;24.60;54.10;;;;;;5049593;27;20073;-62
2021/06/09 09:17:09;;;;;;;11.87;10.63;;;24.60;53.70;;;;;;5049383;28;20076;-63
2021/06/09 09:19:42;;;;;;;11.90;10.20;;;24.80;53.10;;;;;;5050077;27;20479;-63
2021/06/09 09:22:18;;;;;;;15.23;10.32;;;24.90;53.70;;;;;;5049250;28;20391;-61
2021/06/09 09:24:48;;;;;;;13.03;8.60;;;24.90;52.30;;;;;;5116465;27;20072;-61
2021/06/09 09:27:27;;;;;;;11.73;9.20;;;24.90;53.10;;;;;;5049307;28;20045;-61
2021/06/09 09:30:13;;;;;;;14.97;9.03;;;25.10;52.40;;;;;;5049393;28;20117;-61
2021/06/09 09:33:00;;;;;;;10.40;9.23;;;25.30;52.40;;;;;;5049584;27;20053;-63
2021/06/09 09:35:38;;;;;;;12.77;10.17;;;25.50;52.10;;;;;;5049623;28;20072;-64
2021/06/09 09:38:18;;;;;;;12.97;10.23;;;25.80;51.30;;;;;;5049598;27;20041;-62
2021/06/09 09:41:04;;;;;;;12.53;8.83;;;26.00;50.00;;;;;;5054639;28;20072;-62
2021/06/09 09:44:01;;;;;;;13.20;9.10;;;25.90;49.80;;;;;;5069152;28;20404;-63
2021/06/09 09:46:38;;;;;;;12.90;9.15;;;25.60;49.50;;;;;;5036541;28;20124;-63
2021/06/09 09:49:13;;;;;;;9.83;8.23;;;25.70;51.20;;;;;;5047133;28;20052;-63
2021/06/09 09:51:45;;;;;;;10.43;8.20;;;25.60;50.50;;;;;;5047929;27;20115;-63
2021/06/09 09:54:12;;;;;;;9.90;8.27;;;25.80;48.80;;;;;;5048171;28;20041;-63
2021/06/09 09:56:41;;;;;;;12.63;8.17;;;25.80;48.30;;;;;;5048953;27;20053;-62
2021/06/09 09:59:08;;;;;;;9.30;8.00;;;25.80;47.90;;;;;;5049457;27;20056;-63
2021/06/09 10:01:51;;;;;;;10.17;8.20;;;26.00;47.70;;;;;;5048640;27;20037;-63
2021/06/09 10:04:24;;;;;;;10.48;8.45;;;26.00;47.90;;;;;;5048187;27;20096;-63
2021/06/09 10:06:52;;;;;;;9.65;8.10;;;26.00;47.80;;;;;;5048904;28;20072;-63
2021/06/09 10:09:50;;;;;;;12.97;8.30;;;25.80;48.70;;;;;;5049190;27;20549;-63
2021/06/09 10:12:16;;;;;;;11.10;8.67;;;25.90;47.30;;;;;;5072496;27;20422;-63
2021/06/09 10:14:47;;;;;;;9.67;8.77;;;26.00;48.40;;;;;;5048624;28;20097;-63
2021/06/09 10:17:19;;;;;;;12.40;8.13;;;26.10;49.80;;;;;;5048723;28;20056;-63
2021/06/09 10:19:46;;;;;;;10.97;7.90;;;26.10;48.80;;;;;;5048187;27;20045;-62
2021/06/09 10:22:18;;;;;;;10.97;8.90;;;26.30;47.80;;;;;;5048258;28;20052;-63
2021/06/09 10:24:57;;;;;;;9.90;7.87;;;26.40;46.30;;;;;;5048440;28;20532;-62
2021/06/09 10:27:47;;;;;;;12.63;9.30;;;26.60;48.10;;;;;;5048388;27;20049;-62
2021/06/09 10:30:16;;;;;;;12.83;8.47;;;26.50;46.20;;;;;;5048458;28;20127;-62
2021/06/09 10:32:59;;;;;;;8.63;7.37;;;26.60;48.30;;;;;;5048253;28;20041;-63
2021/06/09 10:35:38;;;;;;;;;;;26.80;48.30;;;;;;5048380;27;20068;-63
2021/06/09 10:38:04;;;;;;;14.73;9.63;;;26.60;45.30;;;;;;5048698;28;20007;-63
2021/06/09 10:40:36;;;;;;;12.30;10.80;;;26.40;47.50;;;;;;5113949;27;20054;-62
2021/06/09 10:43:05;;;;;;;13.27;9.53;;;26.50;45.10;;;;;;5048706;27;20481;-62
2021/06/09 10:45:42;;;;;;;10.47;9.30;;;26.30;46.90;;;;;;5048472;27;20071;-67
2021/06/09 10:48:12;;;;;;;12.37;10.33;;;26.30;46.10;;;;;;5048553;27;20633;-63
2021/06/09 10:50:38;;;;;;;14.03;9.87;;;26.30;46.10;;;;;;5048067;28;20132;-72
2021/06/09 10:53:06;;;;;;;14.43;10.30;;;26.60;46.80;;;;;;5048234;28;20129;-63
2021/06/09 10:55:33;;;;;;;12.07;9.53;;;26.50;46.10;;;;;;5057582;27;20060;-63
2021/06/09 10:57:59;;;;;;;15.93;10.40;;;26.90;45.60;;;;;;5067975;28;20053;-63
2021/06/09 11:00:25;;;;;;;26.83;17.93;;;27.00;45.30;;;;;;5067759;27;20048;-63
2021/06/09 11:02:55;;;;;;;17.83;10.60;;;27.30;45.10;;;;;;5066983;27;20083;-62
2021/06/09 11:05:23;;;;;;;16.00;10.53;;;27.20;45.20;;;;;;5068259;27;20063;-64
2021/06/09 11:07:52;;;;;;;10.67;9.57;;;27.30;44.40;;;;;;5068054;28;20135;-63
2021/06/09 11:10:39;;;;;;;13.60;9.50;;;27.20;43.60;;;;;;5137517;27;20615;-63
2021/06/09 11:13:07;;;;;;;14.77;11.30;;;27.00;45.40;;;;;;5136533;27;20040;-63
2021/06/09 11:15:36;;;;;;;12.00;10.73;;;26.70;44.30;;;;;;5066941;27;20401;-65
2021/06/09 11:18:16;;;;;;;14.97;10.60;;;26.80;45.00;;;;;;5133515;27;20044;-65
2021/06/09 11:20:47;;;;;;;14.53;11.47;;;27.10;45.90;;;;;;5068109;27;20482;-66
2021/06/09 11:23:33;;;;;;;44.20;13.53;;;27.20;45.10;;;;;;5067608;27;20493;-64
2021/06/09 11:25:59;;;;;;;34.53;14.00;;;26.80;45.00;;;;;;5067305;28;20051;-65
2021/06/09 11:28:39;;;;;;;15.80;12.90;;;26.90;46.50;;;;;;5067682;27;20654;-65
2021/06/09 11:31:14;;;;;;;14.10;12.57;;;27.00;45.50;;;;;;5131072;27;20048;-64
2021/06/09 11:34:02;;;;;;;12.83;11.47;;;26.90;45.60;;;;;;5067247;28;20493;-62
2021/06/09 11:36:38;;;;;;;13.73;11.67;;;26.60;45.10;;;;;;5066969;27;20053;-62
2021/06/09 11:39:18;;;;;;;15.67;12.20;;;26.70;46.90;;;;;;5068249;27;20056;-62
2021/06/09 11:41:46;;;;;;;15.97;12.07;;;26.70;46.80;;;;;;5067622;27;20166;-63
2021/06/09 11:44:27;;;;;;;15.23;13.63;;;26.80;47.60;;;;;;5067962;27;20511;-63
2021/06/09 11:47:16;;;;;;;14.00;12.60;;;26.60;46.40;;;;;;5068161;27;20048;-63
2021/06/09 11:49:42;;;;;;;14.20;12.00;;;26.70;48.40;;;;;;5067396;28;20473;-62
2021/06/09 11:52:09;;;;;;;15.67;13.73;;;26.70;47.20;;;;;;5067713;27;20052;-62
2021/06/09 11:54:36;;;;;;;15.20;13.63;;;26.80;46.70;;;;;;5067768;27;20037;-63
2021/06/09 11:57:20;;;;;;;17.27;14.50;;;26.60;46.20;;;;;;5136674;27;20058;-64
2021/06/09 11:59:47;;;;;;;;;;;26.60;45.20;;;;;;5067991;28;20095;-63
2021/06/09 12:02:25;;;;;;;17.07;14.43;;;26.30;44.90;;;;;;5067664;28;19921;-63
2021/06/09 12:04:53;;;;;;;15.90;14.20;;;26.30;47.20;;;;;;5067779;27;20045;-62
2021/06/09 12:07:20;;;;;;;16.33;14.00;;;26.60;47.50;;;;;;5067593;27;20045;-62
2021/06/09 12:09:48;;;;;;;15.63;12.47;;;26.60;47.50;;;;;;5067603;27;20386;-63
2021/06/09 12:12:22;;;;;;;17.10;14.00;;;27.00;48.10;;;;;;5136804;27;20044;-63
2021/06/09 12:14:58;;;;;;;14.87;13.13;;;27.00;46.70;;;;;;5067892;27;20065;-63
2021/06/09 12:17:26;;;;;;;15.27;13.57;;;27.00;46.00;;;;;;5068114;27;20059;-62
2021/06/09 12:20:01;;;;;;;15.93;14.23;;;27.20;46.90;;;;;;5068053;28;20091;-64
2021/06/09 12:22:31;;;;;;;16.37;14.77;;;27.10;45.60;;;;;;5136734;27;20053;-62
2021/06/09 12:25:06;;;;;;;18.37;14.23;;;27.20;45.60;;;;;;5067227;28;20072;-63
2021/06/09 12:27:33;;;;;;;15.70;13.97;;;27.10;45.60;;;;;;5140991;27;20450;-62
2021/06/09 12:29:59;;;;;;;15.67;13.77;;;26.90;45.40;;;;;;5071481;27;20079;-63
2021/06/09 12:32:27;;;;;;;15.00;12.73;;;26.90;46.50;;;;;;5070539;28;20040;-63
2021/06/09 12:34:54;;;;;;;14.97;13.00;;;27.10;46.90;;;;;;5070790;27;20145;-63
2021/06/09 12:37:21;;;;;;;15.13;12.87;;;27.30;46.50;;;;;;5070257;27;20431;-63
2021/06/09 12:39:54;;;;;;;15.77;14.10;;;27.30;46.20;;;;;;5070818;27;20056;-63
2021/06/09 12:42:20;;;;;;;;;;;27.40;46.90;;;;;;5071194;27;20127;-64
2021/06/09 12:44:49;;;;;;;18.33;15.10;;;27.00;47.00;;;;;;5070715;27;19971;-61
2021/06/09 12:47:31;;;;;;;19.17;15.77;;;27.20;47.60;;;;;;5061188;27;20089;-61